createdAt,value
2022-10-07T00:01:36.322Z,3.30
2022-10-07T00:04:03.048Z,3.17
2022-10-07T00:06:29.505Z,3.10
2022-10-07T00:08:56.054Z,3.33
2022-10-07T00:11:24.830Z,3.40
2022-10-07T00:13:58.824Z,2.90
2022-10-07T00:16:30.226Z,3.43
2022-10-07T00:18:58.077Z,3.20
2022-10-07T00:21:25.553Z,3.27
2022-10-07T00:23:53.102Z,2.93
2022-10-07T00:26:21.635Z,2.90
2022-10-07T00:28:48.539Z,3.13
2022-10-07T00:31:22.127Z,3.13
2022-10-07T00:33:49.960Z,3.20
2022-10-07T00:36:23.352Z,3.67
2022-10-07T00:38:52.064Z,3.27
2022-10-07T00:41:20.105Z,2.87
2022-10-07T00:43:46.925Z,2.93
2022-10-07T00:46:13.407Z,2.70
2022-10-07T00:48:40.121Z,2.90
2022-10-07T00:51:07.765Z,2.90
2022-10-07T00:53:36.126Z,3.20
2022-10-07T00:56:04.352Z,3.30
2022-10-07T00:58:32.236Z,3.17
2022-10-07T01:00:58.770Z,2.77
2022-10-07T01:03:26.266Z,2.93
2022-10-07T01:05:54.803Z,3.03
2022-10-07T01:08:22.056Z,2.70
2022-10-07T01:11:13.925Z,2.60
2022-10-07T01:13:56.783Z,2.80
2022-10-07T01:16:30.358Z,2.90
2022-10-07T01:18:59.979Z,2.47
2022-10-07T01:21:43.719Z,3.37
2022-10-07T01:24:16.220Z,2.40
2022-10-07T01:26:57.289Z,2.40
2022-10-07T01:29:29.943Z,2.80
2022-10-07T01:32:05.959Z,2.37
2022-10-07T01:34:34.694Z,2.57
2022-10-07T01:37:02.225Z,2.53
2022-10-07T01:39:32.812Z,2.60
2022-10-07T01:41:59.748Z,2.87
2022-10-07T01:44:29.307Z,2.93
2022-10-07T01:46:56.079Z,2.93
2022-10-07T01:49:23.388Z,2.73
2022-10-07T01:52:16.254Z,2.83
2022-10-07T01:55:01.657Z,2.70
2022-10-07T01:57:40.721Z,2.67
2022-10-07T02:00:10.012Z,2.50
2022-10-07T02:02:49.260Z,2.60
2022-10-07T02:05:31.121Z,2.40
2022-10-07T02:07:57.704Z,2.10
2022-10-07T02:10:27.875Z,2.30
2022-10-07T02:13:14.553Z,2.73
2022-10-07T02:15:58.926Z,2.67
2022-10-07T02:18:27.898Z,2.80
2022-10-07T02:20:56.026Z,3.03
2022-10-07T02:23:23.838Z,2.73
2022-10-07T02:25:53.582Z,3.20
2022-10-07T02:28:22.229Z,2.47
2022-10-07T02:30:53.813Z,2.50
2022-10-07T02:33:21.710Z,2.80
2022-10-07T02:35:54.078Z,2.63
2022-10-07T02:38:23.074Z,2.37
2022-10-07T02:41:06.194Z,2.87
2022-10-07T02:43:39.208Z,2.97
2022-10-07T02:46:11.512Z,3.10
2022-10-07T02:48:43.639Z,2.80
2022-10-07T02:51:12.030Z,2.97
2022-10-07T02:53:39.178Z,2.53
2022-10-07T02:56:06.753Z,2.93
2022-10-07T02:58:34.547Z,2.77
2022-10-07T03:01:03.042Z,3.00
2022-10-07T03:03:32.871Z,3.00
2022-10-07T03:06:04.163Z,2.70
2022-10-07T03:08:32.295Z,2.70
2022-10-07T03:10:59.960Z,2.97
2022-10-07T03:13:26.802Z,2.80
2022-10-07T03:15:58.070Z,2.67
2022-10-07T03:18:29.410Z,2.70
2022-10-07T03:21:05.024Z,2.90
2022-10-07T03:23:31.730Z,2.97
2022-10-07T03:25:58.639Z,2.80
2022-10-07T03:28:28.750Z,2.83
2022-10-07T03:31:06.055Z,3.03
2022-10-07T03:33:34.909Z,3.17
2022-10-07T03:36:01.439Z,3.00
2022-10-07T03:38:27.956Z,2.70
2022-10-07T03:40:54.835Z,2.80
2022-10-07T03:43:21.458Z,3.00
2022-10-07T03:45:51.035Z,2.23
2022-10-07T03:48:20.065Z,2.77
2022-10-07T03:50:53.096Z,3.17
2022-10-07T03:53:22.797Z,2.33
2022-10-07T03:55:49.262Z,3.43
2022-10-07T03:58:16.723Z,2.80
2022-10-07T04:00:44.675Z,2.90
2022-10-07T04:03:11.342Z,3.30
2022-10-07T04:05:37.941Z,3.13
2022-10-07T04:08:07.833Z,2.73
2022-10-07T04:10:34.602Z,2.60
2022-10-07T04:13:01.160Z,3.17
2022-10-07T04:15:27.885Z,3.33
2022-10-07T04:17:58.568Z,2.90
2022-10-07T04:20:28.808Z,2.50
2022-10-07T04:22:55.372Z,2.93
2022-10-07T04:25:34.331Z,2.90
2022-10-07T04:28:09.410Z,3.00
2022-10-07T04:30:44.159Z,3.00
2022-10-07T04:33:13.480Z,3.27
2022-10-07T04:35:40.996Z,3.20
2022-10-07T04:38:10.618Z,3.10
2022-10-07T04:40:40.939Z,3.07
2022-10-07T04:43:24.877Z,3.50
2022-10-07T04:46:06.909Z,2.33
2022-10-07T04:48:38.605Z,2.80
2022-10-07T04:51:06.492Z,3.00
2022-10-07T04:53:33.485Z,3.30
2022-10-07T04:56:01.311Z,2.43
2022-10-07T04:58:28.998Z,3.10
2022-10-07T05:00:57.003Z,3.17
2022-10-07T05:03:25.995Z,2.90
2022-10-07T05:05:54.847Z,3.17
2022-10-07T05:08:27.094Z,2.63
2022-10-07T05:10:59.772Z,2.73
2022-10-07T05:13:31.055Z,3.00
2022-10-07T05:15:59.683Z,3.13
2022-10-07T05:18:27.046Z,2.80
2022-10-07T05:20:57.673Z,3.00
2022-10-07T05:23:28.697Z,3.00
2022-10-07T05:25:59.710Z,3.03
2022-10-07T05:28:27.148Z,2.90
2022-10-07T05:33:59.230Z,2.40
2022-10-07T05:36:26.363Z,3.13
2022-10-07T05:38:57.956Z,2.80
2022-10-07T05:41:29.060Z,2.83
2022-10-07T05:44:00.126Z,2.63
2022-10-07T05:46:27.177Z,3.03
2022-10-07T05:48:57.027Z,2.97
2022-10-07T05:51:28.121Z,3.10
2022-10-07T05:53:57.945Z,2.40
2022-10-07T05:56:30.779Z,2.90
2022-10-07T05:58:58.029Z,2.40
2022-10-07T06:01:28.533Z,3.20
2022-10-07T06:03:57.988Z,2.80
2022-10-07T06:06:29.436Z,3.20
2022-10-07T06:09:17.893Z,3.10
2022-10-07T06:12:04.731Z,3.40
2022-10-07T06:14:32.782Z,2.80
2022-10-07T06:17:00.591Z,3.00
2022-10-07T06:19:27.315Z,3.53
2022-10-07T06:21:57.909Z,2.80
2022-10-07T06:24:25.530Z,2.70
2022-10-07T06:26:55.334Z,3.80
2022-10-07T06:29:24.215Z,3.00
2022-10-07T06:31:51.100Z,3.07
2022-10-07T06:34:25.411Z,3.20
2022-10-07T06:36:53.193Z,3.17
2022-10-07T06:39:19.752Z,2.87
2022-10-07T06:41:47.689Z,3.03
2022-10-07T06:44:36.707Z,3.10
2022-10-07T06:47:07.842Z,3.17
2022-10-07T06:49:39.004Z,2.87
2022-10-07T06:52:05.849Z,3.13
2022-10-07T06:54:34.092Z,3.13
2022-10-07T06:57:00.730Z,3.47
2022-10-07T06:59:27.829Z,3.03
2022-10-07T07:02:03.470Z,3.00
2022-10-07T07:04:33.033Z,3.70
2022-10-07T07:07:00.536Z,3.40
2022-10-07T07:09:27.663Z,3.07
2022-10-07T07:11:56.681Z,3.43
2022-10-07T07:14:34.865Z,3.20
2022-10-07T07:17:10.836Z,3.60
2022-10-07T07:19:44.040Z,3.73
2022-10-07T07:22:11.625Z,3.53
2022-10-07T07:24:39.908Z,3.10
2022-10-07T07:27:07.590Z,4.20
2022-10-07T07:29:34.402Z,3.70
2022-10-07T07:32:04.299Z,3.77
2022-10-07T07:34:38.010Z,3.47
2022-10-07T07:37:06.237Z,3.47
2022-10-07T07:39:38.179Z,4.03
2022-10-07T07:42:09.172Z,3.43
2022-10-07T07:44:37.827Z,3.77
2022-10-07T07:47:09.705Z,3.80
2022-10-07T07:49:38.153Z,3.60
2022-10-07T07:52:07.423Z,3.43
2022-10-07T07:54:41.877Z,3.23
2022-10-07T07:57:09.025Z,3.83
2022-10-07T07:59:37.297Z,4.00
2022-10-07T08:02:05.728Z,3.63
2022-10-07T08:04:33.113Z,4.00
2022-10-07T08:07:00.459Z,3.63
2022-10-07T08:09:28.011Z,3.60
2022-10-07T08:11:56.320Z,3.70
2022-10-07T08:14:23.601Z,3.90
2022-10-07T08:16:52.307Z,4.13
2022-10-07T08:19:19.407Z,3.93
2022-10-07T08:21:46.275Z,4.30
2022-10-07T08:24:18.907Z,3.70
2022-10-07T08:26:47.353Z,4.33
2022-10-07T08:29:15.237Z,4.13
2022-10-07T08:31:42.867Z,4.03
2022-10-07T08:34:10.141Z,4.30
2022-10-07T08:36:37.078Z,4.30
2022-10-07T08:39:04.673Z,4.07
2022-10-07T08:41:34.372Z,3.80
2022-10-07T08:44:28.805Z,3.57
2022-10-07T08:47:14.852Z,3.57
2022-10-07T08:49:48.010Z,4.00
2022-10-07T08:52:34.282Z,4.40
2022-10-07T08:55:01.681Z,3.97
2022-10-07T08:57:31.162Z,4.00
2022-10-07T09:00:00.683Z,4.13
2022-10-07T09:02:35.957Z,4.47
2022-10-07T09:05:20.492Z,3.87
2022-10-07T09:07:50.050Z,3.80
2022-10-07T09:10:35.536Z,3.93
2022-10-07T09:13:05.043Z,4.20
2022-10-07T09:15:48.075Z,4.00
2022-10-07T09:18:24.504Z,3.83
2022-10-07T09:20:55.704Z,3.80
2022-10-07T09:23:28.977Z,3.70
2022-10-07T09:25:55.524Z,3.40
2022-10-07T09:28:25.539Z,3.67
2022-10-07T09:30:52.550Z,3.80
2022-10-07T09:33:20.847Z,3.73
2022-10-07T09:36:08.013Z,3.30
2022-10-07T09:38:39.068Z,4.00
2022-10-07T09:41:19.480Z,3.93
2022-10-07T09:43:54.759Z,3.63
2022-10-07T09:46:26.963Z,3.20
2022-10-07T09:48:54.902Z,3.30
2022-10-07T09:51:31.072Z,3.40
2022-10-07T09:54:16.984Z,3.00
2022-10-07T09:56:47.996Z,2.97
2022-10-07T09:59:17.386Z,3.17
2022-10-07T10:01:51.998Z,3.40
2022-10-07T10:04:19.625Z,3.40
2022-10-07T10:06:49.897Z,3.00
2022-10-07T10:09:22.212Z,2.87
2022-10-07T10:12:06.081Z,2.90
2022-10-07T10:14:41.377Z,2.93
2022-10-07T10:17:20.814Z,2.50
2022-10-07T10:19:47.326Z,3.07
2022-10-07T10:22:24.111Z,3.00
2022-10-07T10:25:10.299Z,2.80
2022-10-07T10:27:57.251Z,2.77
2022-10-07T10:30:25.519Z,2.57
2022-10-07T10:32:52.339Z,2.17
2022-10-07T10:35:18.948Z,2.77
2022-10-07T10:37:48.513Z,2.40
2022-10-07T10:40:35.546Z,2.40
2022-10-07T10:43:26.728Z,2.73
2022-10-07T10:46:00.729Z,1.67
2022-10-07T10:48:29.189Z,2.10
2022-10-07T10:51:14.699Z,2.33
2022-10-07T10:54:00.295Z,2.17
2022-10-07T10:57:05.586Z,2.40
2022-10-07T10:59:41.921Z,2.70
2022-10-07T11:02:29.578Z,2.40
2022-10-07T11:05:04.067Z,2.27
2022-10-07T11:07:33.268Z,1.90
2022-10-07T11:10:13.737Z,1.80
2022-10-07T11:12:41.725Z,2.00
2022-10-07T11:15:21.578Z,1.80
2022-10-07T11:17:50.010Z,1.80
2022-10-07T11:20:20.633Z,1.93
2022-10-07T11:23:11.766Z,2.10
2022-10-07T11:25:43.360Z,2.70
2022-10-07T11:28:39.774Z,2.20
2022-10-07T11:31:10.123Z,2.10
2022-10-07T11:33:46.401Z,2.20
2022-10-07T11:36:15.113Z,2.07
2022-10-07T11:38:42.177Z,1.90
2022-10-07T11:41:13.984Z,1.93
2022-10-07T11:43:47.082Z,1.77
2022-10-07T11:46:22.029Z,2.07
2022-10-07T11:48:57.089Z,2.10
2022-10-07T11:51:27.344Z,2.10
2022-10-07T11:53:55.709Z,1.73
2022-10-07T11:56:24.523Z,1.67
2022-10-07T11:59:02.773Z,2.30
2022-10-07T12:01:35.875Z,1.60
2022-10-07T12:04:35.524Z,1.87
2022-10-07T12:07:21.038Z,1.77
2022-10-07T12:09:54.999Z,1.77
2022-10-07T12:12:24.997Z,1.73
2022-10-07T12:15:02.248Z,2.17
2022-10-07T12:17:29.084Z,2.20
2022-10-07T12:20:22.147Z,1.90
2022-10-07T12:23:03.382Z,1.80
2022-10-07T12:25:32.324Z,1.70
2022-10-07T12:27:59.316Z,1.97
2022-10-07T12:30:40.098Z,1.60
2022-10-07T12:33:30.687Z,1.90
2022-10-07T12:35:57.256Z,1.50
2022-10-07T12:38:25.715Z,1.80
2022-10-07T12:41:05.582Z,2.40
2022-10-07T12:43:53.158Z,2.57
2022-10-07T12:46:22.237Z,1.80
2022-10-07T12:48:54.830Z,1.77
2022-10-07T12:51:24.885Z,1.60
2022-10-07T12:53:52.035Z,2.30
2022-10-07T12:56:22.749Z,2.20
2022-10-07T12:59:23.213Z,1.73
2022-10-07T13:02:08.731Z,1.60
2022-10-07T13:04:55.384Z,1.90
2022-10-07T13:07:39.895Z,1.93
2022-10-07T13:10:25.548Z,1.87
2022-10-07T13:12:58.610Z,2.17
2022-10-07T13:15:41.387Z,1.97
2022-10-07T13:18:17.650Z,1.90
2022-10-07T13:20:55.010Z,2.07
2022-10-07T13:23:26.871Z,1.80
2022-10-07T13:25:56.149Z,2.10
2022-10-07T13:28:29.414Z,1.60
2022-10-07T13:31:10.954Z,2.37
2022-10-07T13:33:38.280Z,2.00
2022-10-07T13:36:16.286Z,2.30
2022-10-07T13:38:43.484Z,2.20
2022-10-07T13:41:16.207Z,2.33
2022-10-07T13:43:44.482Z,1.80
2022-10-07T13:46:11.763Z,2.10
2022-10-07T13:48:45.340Z,1.83
2022-10-07T13:51:23.005Z,1.70
2022-10-07T13:53:56.004Z,2.20
2022-10-07T13:56:24.955Z,1.63
2022-10-07T13:58:55.235Z,1.90
2022-10-07T14:01:23.421Z,1.67
2022-10-07T14:03:59.916Z,1.60
2022-10-07T14:06:44.537Z,2.00
2022-10-07T14:09:18.448Z,1.90
2022-10-07T14:11:47.053Z,1.80
2022-10-07T14:14:18.763Z,1.90
2022-10-07T14:16:45.548Z,1.83
2022-10-07T14:19:20.569Z,1.60
2022-10-07T14:21:47.631Z,1.77
2022-10-07T14:24:18.029Z,2.00
2022-10-07T14:26:47.599Z,1.93
2022-10-07T14:29:29.649Z,1.50
2022-10-07T14:32:35.425Z,1.50
2022-10-07T14:35:23.038Z,1.70
2022-10-07T14:37:50.391Z,1.40
2022-10-07T14:40:23.961Z,2.00
2022-10-07T14:42:53.609Z,1.70
2022-10-07T14:45:22.129Z,1.70
2022-10-07T14:47:50.062Z,1.63
2022-10-07T14:50:19.560Z,1.77
2022-10-07T14:52:52.337Z,1.90
2022-10-07T14:55:22.081Z,1.90
2022-10-07T14:57:48.748Z,1.43
2022-10-07T15:00:26.557Z,1.80
2022-10-07T15:02:54.594Z,1.83
2022-10-07T15:05:24.154Z,2.17
2022-10-07T15:07:51.431Z,1.63
2022-10-07T15:10:19.503Z,1.77
2022-10-07T15:12:46.963Z,1.80
2022-10-07T15:15:14.246Z,1.57
2022-10-07T15:17:41.435Z,1.47
2022-10-07T15:20:09.053Z,1.50
2022-10-07T15:22:36.056Z,1.43
2022-10-07T15:25:05.599Z,1.90
2022-10-07T15:27:33.170Z,2.20
2022-10-07T15:30:01.082Z,2.23
2022-10-07T15:32:30.651Z,1.70
2022-10-07T15:34:58.062Z,1.90
2022-10-07T15:37:28.915Z,1.50
2022-10-07T15:39:55.342Z,1.67
2022-10-07T15:42:23.989Z,1.60
2022-10-07T15:44:50.962Z,1.73
2022-10-07T15:47:17.578Z,1.47
2022-10-07T15:49:47.137Z,1.70
2022-10-07T15:52:13.588Z,1.50
2022-10-07T15:54:40.272Z,1.80
2022-10-07T15:57:08.251Z,1.90
2022-10-07T15:59:37.543Z,1.60
2022-10-07T16:02:05.801Z,1.50
2022-10-07T16:04:32.508Z,1.70
2022-10-07T16:06:59.635Z,1.63
2022-10-07T16:09:26.155Z,1.83
2022-10-07T16:11:52.690Z,1.70
2022-10-07T16:14:19.431Z,2.00
2022-10-07T16:20:18.567Z,2.20
2022-10-07T16:22:45.359Z,1.80
2022-10-07T16:25:12.533Z,1.80
2022-10-07T16:27:58.049Z,2.20
2022-10-07T16:30:41.586Z,2.17
2022-10-07T16:33:08.614Z,1.80
2022-10-07T16:35:35.178Z,2.10
2022-10-07T16:38:05.386Z,2.40
2022-10-07T16:40:31.888Z,2.07
2022-10-07T16:42:59.677Z,2.50
2022-10-07T16:45:26.384Z,2.30
2022-10-07T16:47:54.610Z,2.30
2022-10-07T16:50:21.356Z,2.10
2022-10-07T16:52:48.637Z,2.00
2022-10-07T16:55:22.698Z,2.30
2022-10-07T16:57:49.695Z,1.73
2022-10-07T17:00:16.784Z,1.83
2022-10-07T17:02:46.159Z,2.37
2022-10-07T17:05:20.677Z,2.50
2022-10-07T17:07:51.696Z,2.10
2022-10-07T17:10:28.892Z,2.87
2022-10-07T17:12:58.843Z,2.40
2022-10-07T17:15:27.574Z,2.43
2022-10-07T17:17:55.259Z,2.50
2022-10-07T17:20:22.405Z,2.10
2022-10-07T17:22:49.879Z,2.30
2022-10-07T17:25:21.141Z,3.07
2022-10-07T17:27:49.446Z,2.77
2022-10-07T17:30:16.800Z,2.37
2022-10-07T17:32:44.948Z,2.27
2022-10-07T17:35:12.178Z,2.43
2022-10-07T17:37:41.895Z,2.73
2022-10-07T17:40:09.424Z,2.40
2022-10-07T17:42:36.907Z,2.47
2022-10-07T17:45:07.517Z,3.20
2022-10-07T17:47:37.967Z,4.53
2022-10-07T17:50:05.035Z,4.10
2022-10-07T17:52:43.319Z,6.13
2022-10-07T17:55:13.780Z,4.47
2022-10-07T17:57:48.703Z,5.40
2022-10-07T18:00:15.618Z,4.43
2022-10-07T18:02:42.525Z,5.13
2022-10-07T18:05:12.585Z,5.73
2022-10-07T18:07:42.885Z,5.50
2022-10-07T18:10:09.970Z,4.97
2022-10-07T18:13:00.198Z,4.00
2022-10-07T18:15:30.231Z,4.70
2022-10-07T18:17:58.222Z,5.17
2022-10-07T18:20:28.681Z,3.97
2022-10-07T18:22:56.203Z,3.67
2022-10-07T18:25:29.413Z,4.03
2022-10-07T18:27:58.483Z,3.90
2022-10-07T18:30:26.278Z,4.47
2022-10-07T18:32:53.629Z,4.20
2022-10-07T18:35:20.706Z,4.33
2022-10-07T18:37:49.725Z,3.90
2022-10-07T18:40:21.121Z,3.90
2022-10-07T18:42:54.317Z,4.10
2022-10-07T18:45:26.530Z,4.23
2022-10-07T18:47:57.255Z,4.50
2022-10-07T18:50:33.626Z,4.03
2022-10-07T18:53:02.688Z,3.50
2022-10-07T18:55:30.289Z,3.97
2022-10-07T18:57:58.427Z,3.57
2022-10-07T19:00:28.863Z,3.50
2022-10-07T19:02:57.534Z,3.13
2022-10-07T19:05:32.928Z,3.33
2022-10-07T19:08:00.887Z,3.00
2022-10-07T19:10:28.124Z,3.70
2022-10-07T19:13:16.095Z,3.47
2022-10-07T19:15:46.437Z,3.60
2022-10-07T19:18:13.238Z,3.83
2022-10-07T19:20:42.378Z,3.60
2022-10-07T19:23:11.707Z,3.73
2022-10-07T19:25:48.232Z,3.67
2022-10-07T19:28:14.772Z,4.37
2022-10-07T19:30:42.591Z,4.20
2022-10-07T19:33:12.010Z,3.90
2022-10-07T19:35:38.894Z,4.13
2022-10-07T19:38:06.157Z,4.27
2022-10-07T19:40:43.140Z,3.93
2022-10-07T19:43:10.696Z,4.30
2022-10-07T19:45:41.016Z,4.23
2022-10-07T19:48:13.781Z,3.90
2022-10-07T19:50:40.781Z,3.70
2022-10-07T19:53:07.311Z,3.70
2022-10-07T19:55:34.138Z,3.63
2022-10-07T19:58:01.413Z,4.40
2022-10-07T20:00:28.630Z,4.27
2022-10-07T20:02:56.400Z,3.73
2022-10-07T20:05:28.411Z,3.80
2022-10-07T20:07:55.692Z,3.40
2022-10-07T20:10:23.849Z,3.13
2022-10-07T20:12:50.977Z,3.67
2022-10-07T20:15:18.121Z,3.53
2022-10-07T20:17:49.512Z,3.47
2022-10-07T20:20:16.302Z,2.90
2022-10-07T20:22:48.486Z,2.90
2022-10-07T20:25:16.166Z,3.20
2022-10-07T20:27:42.570Z,3.33
2022-10-07T20:30:17.531Z,3.10
2022-10-07T20:32:46.774Z,3.13
2022-10-07T20:35:13.353Z,2.73
2022-10-07T20:37:39.918Z,2.97
2022-10-07T20:40:25.920Z,3.00
2022-10-07T20:42:53.489Z,2.70
2022-10-07T20:45:20.250Z,2.20
2022-10-07T20:47:55.239Z,2.43
2022-10-07T20:50:21.706Z,2.53
2022-10-07T20:52:48.570Z,2.43
2022-10-07T20:55:15.389Z,2.30
2022-10-07T20:57:41.968Z,2.07
2022-10-07T21:00:15.910Z,1.97
2022-10-07T21:02:44.196Z,2.30
2022-10-07T21:05:10.792Z,2.63
2022-10-07T21:07:37.565Z,2.97
2022-10-07T21:10:04.235Z,3.10
2022-10-07T21:12:30.683Z,2.90
2022-10-07T21:15:00.555Z,2.33
2022-10-07T21:17:27.456Z,2.57
2022-10-07T21:19:55.196Z,2.80
2022-10-07T21:22:22.912Z,2.60
2022-10-07T21:24:50.009Z,2.63
2022-10-07T21:27:16.540Z,2.90
2022-10-07T21:29:47.983Z,2.80
2022-10-07T21:32:15.442Z,2.33
2022-10-07T21:34:43.119Z,2.80
2022-10-07T21:37:09.761Z,2.50
2022-10-07T21:39:36.359Z,2.53
2022-10-07T21:42:03.435Z,2.20
2022-10-07T21:44:32.219Z,2.23
2022-10-07T21:46:59.966Z,2.30
2022-10-07T21:49:26.610Z,2.40
2022-10-07T21:51:53.187Z,2.87
2022-10-07T21:54:19.932Z,2.80
2022-10-07T21:56:47.023Z,2.43
2022-10-07T21:59:14.153Z,2.87
2022-10-07T22:01:41.802Z,2.90
2022-10-07T22:04:13.373Z,2.70
2022-10-07T22:06:58.777Z,2.73
2022-10-07T22:09:25.940Z,2.77
2022-10-07T22:11:52.805Z,2.70
2022-10-07T22:14:19.452Z,2.20
2022-10-07T22:16:48.414Z,2.53
2022-10-07T22:19:17.509Z,2.20
2022-10-07T22:21:46.436Z,2.90
2022-10-07T22:24:13.883Z,2.70
2022-10-07T22:26:43.662Z,2.60
2022-10-07T22:29:10.384Z,2.20
2022-10-07T22:31:37.663Z,2.23
2022-10-07T22:34:04.758Z,2.70
2022-10-07T22:36:32.161Z,3.07
2022-10-07T22:38:59.192Z,2.40
2022-10-07T22:41:26.093Z,2.50
2022-10-07T22:43:53.188Z,2.43
2022-10-07T22:46:26.553Z,2.87
2022-10-07T22:48:56.507Z,2.47
2022-10-07T22:51:23.404Z,2.40
2022-10-07T22:53:51.223Z,2.93
2022-10-07T22:56:20.298Z,3.00
2022-10-07T22:58:53.039Z,4.00
2022-10-07T23:01:19.712Z,3.67
2022-10-07T23:03:47.331Z,2.90
2022-10-07T23:06:16.964Z,3.17
2022-10-07T23:08:43.958Z,3.40
2022-10-07T23:11:13.521Z,2.93
2022-10-07T23:13:39.930Z,3.27
2022-10-07T23:16:09.142Z,2.80
2022-10-07T23:18:37.331Z,2.83
2022-10-07T23:21:08.009Z,3.00
2022-10-07T23:23:36.408Z,3.03
2022-10-07T23:26:05.178Z,2.77
2022-10-07T23:28:33.468Z,3.53
2022-10-07T23:31:04.898Z,2.90
2022-10-07T23:33:32.968Z,3.47
2022-10-07T23:36:01.070Z,3.17
2022-10-07T23:38:28.592Z,3.37
2022-10-07T23:40:55.076Z,2.83
2022-10-07T23:43:22.848Z,3.47
2022-10-07T23:45:51.650Z,3.10
2022-10-07T23:48:19.230Z,3.20
2022-10-07T23:50:49.576Z,3.00
2022-10-07T23:53:17.315Z,3.00
2022-10-07T23:55:47.710Z,2.40
2022-10-07T23:58:15.306Z,2.63
